sensor_id;sensor_type;location;lat;lon;timestamp;temperature;humidity
15359;DHT22;7779;49.596;11.070;2024-03-08T00:00:16;3.10;58.70
15359;DHT22;7779;49.596;11.070;2024-03-08T00:02:44;3.10;58.70
15359;DHT22;7779;49.596;11.070;2024-03-08T00:05:12;3.00;59.30
15359;DHT22;7779;49.596;11.070;2024-03-08T00:07:39;3.00;58.70
15359;DHT22;7779;49.596;11.070;2024-03-08T00:10:10;3.00;58.80
15359;DHT22;7779;49.596;11.070;2024-03-08T00:12:38;3.00;58.90
15359;DHT22;7779;49.596;11.070;2024-03-08T00:15:04;3.00;58.90
15359;DHT22;7779;49.596;11.070;2024-03-08T00:17:30;3.00;58.90
15359;DHT22;7779;49.596;11.070;2024-03-08T00:19:56;2.90;58.90
15359;DHT22;7779;49.596;11.070;2024-03-08T00:22:22;2.90;59.00
15359;DHT22;7779;49.596;11.070;2024-03-08T00:24:48;2.90;59.00
15359;DHT22;7779;49.596;11.070;2024-03-08T00:27:16;2.90;59.10
15359;DHT22;7779;49.596;11.070;2024-03-08T00:29:42;2.90;59.20
15359;DHT22;7779;49.596;11.070;2024-03-08T00:32:08;2.90;59.40
15359;DHT22;7779;49.596;11.070;2024-03-08T00:34:37;2.80;59.40
15359;DHT22;7779;49.596;11.070;2024-03-08T00:37:03;2.80;59.40
15359;DHT22;7779;49.596;11.070;2024-03-08T00:39:29;2.80;59.40
15359;DHT22;7779;49.596;11.070;2024-03-08T00:41:55;2.80;59.50
15359;DHT22;7779;49.596;11.070;2024-03-08T00:44:21;2.80;59.60
15359;DHT22;7779;49.596;11.070;2024-03-08T00:46:46;2.80;59.80
15359;DHT22;7779;49.596;11.070;2024-03-08T00:49:12;2.80;59.70
15359;DHT22;7779;49.596;11.070;2024-03-08T00:51:38;2.80;59.60
15359;DHT22;7779;49.596;11.070;2024-03-08T00:54:04;2.80;59.80
15359;DHT22;7779;49.596;11.070;2024-03-08T00:56:30;2.80;59.80
15359;DHT22;7779;49.596;11.070;2024-03-08T00:58:55;2.80;59.80
15359;DHT22;7779;49.596;11.070;2024-03-08T01:01:21;2.80;59.80
15359;DHT22;7779;49.596;11.070;2024-03-08T01:03:47;2.80;59.70
15359;DHT22;7779;49.596;11.070;2024-03-08T01:06:14;2.80;59.80
15359;DHT22;7779;49.596;11.070;2024-03-08T01:08:40;2.80;59.70
15359;DHT22;7779;49.596;11.070;2024-03-08T01:11:08;2.80;59.60
15359;DHT22;7779;49.596;11.070;2024-03-08T01:13:34;2.80;59.80
15359;DHT22;7779;49.596;11.070;2024-03-08T01:16:01;2.80;59.80
15359;DHT22;7779;49.596;11.070;2024-03-08T01:18:27;2.70;59.80
15359;DHT22;7779;49.596;11.070;2024-03-08T01:20:52;2.80;59.90
15359;DHT22;7779;49.596;11.070;2024-03-08T01:23:18;2.80;60.40
15359;DHT22;7779;49.596;11.070;2024-03-08T01:25:44;2.70;59.80
15359;DHT22;7779;49.596;11.070;2024-03-08T01:28:09;2.70;59.80
15359;DHT22;7779;49.596;11.070;2024-03-08T01:30:35;2.70;60.60
15359;DHT22;7779;49.596;11.070;2024-03-08T01:33:03;2.70;60.00
15359;DHT22;7779;49.596;11.070;2024-03-08T01:35:28;2.70;60.00
15359;DHT22;7779;49.596;11.070;2024-03-08T01:37:54;2.70;60.00
15359;DHT22;7779;49.596;11.070;2024-03-08T01:40:20;2.70;60.00
15359;DHT22;7779;49.596;11.070;2024-03-08T01:42:46;2.70;60.00
15359;DHT22;7779;49.596;11.070;2024-03-08T01:45:13;2.70;60.00
15359;DHT22;7779;49.596;11.070;2024-03-08T01:47:39;2.70;60.00
15359;DHT22;7779;49.596;11.070;2024-03-08T01:50:05;2.60;59.90
15359;DHT22;7779;49.596;11.070;2024-03-08T01:52:33;2.60;59.90
15359;DHT22;7779;49.596;11.070;2024-03-08T01:55:00;2.60;59.80
15359;DHT22;7779;49.596;11.070;2024-03-08T01:57:31;2.60;59.80
15359;DHT22;7779;49.596;11.070;2024-03-08T02:00:00;2.60;59.80
15359;DHT22;7779;49.596;11.070;2024-03-08T02:02:35;2.50;59.70
15359;DHT22;7779;49.596;11.070;2024-03-08T02:05:03;2.50;59.70
15359;DHT22;7779;49.596;11.070;2024-03-08T02:07:29;2.50;59.60
15359;DHT22;7779;49.596;11.070;2024-03-08T02:09:55;2.40;59.60
15359;DHT22;7779;49.596;11.070;2024-03-08T02:12:21;2.30;60.30
15359;DHT22;7779;49.596;11.070;2024-03-08T02:14:46;2.30;59.60
15359;DHT22;7779;49.596;11.070;2024-03-08T02:17:12;2.30;59.60
15359;DHT22;7779;49.596;11.070;2024-03-08T02:19:38;2.20;59.60
15359;DHT22;7779;49.596;11.070;2024-03-08T02:22:04;2.10;59.60
15359;DHT22;7779;49.596;11.070;2024-03-08T02:24:32;2.10;59.70
15359;DHT22;7779;49.596;11.070;2024-03-08T02:26:58;2.00;59.70
15359;DHT22;7779;49.596;11.070;2024-03-08T02:29:24;2.00;59.80
15359;DHT22;7779;49.596;11.070;2024-03-08T02:31:52;2.00;59.90
15359;DHT22;7779;49.596;11.070;2024-03-08T02:34:18;1.90;60.40
15359;DHT22;7779;49.596;11.070;2024-03-08T02:36:44;1.90;60.00
15359;DHT22;7779;49.596;11.070;2024-03-08T02:39:09;1.90;60.10
15359;DHT22;7779;49.596;11.070;2024-03-08T02:41:36;1.80;60.10
15359;DHT22;7779;49.596;11.070;2024-03-08T02:44:02;1.80;60.30
15359;DHT22;7779;49.596;11.070;2024-03-08T02:46:29;1.70;60.10
15359;DHT22;7779;49.596;11.070;2024-03-08T02:48:55;1.70;61.10
15359;DHT22;7779;49.596;11.070;2024-03-08T02:51:21;1.70;60.20
15359;DHT22;7779;49.596;11.070;2024-03-08T02:53:47;1.70;60.40
15359;DHT22;7779;49.596;11.070;2024-03-08T02:56:14;1.60;60.40
15359;DHT22;7779;49.596;11.070;2024-03-08T02:58:42;1.60;60.60
15359;DHT22;7779;49.596;11.070;2024-03-08T03:01:08;1.60;60.70
15359;DHT22;7779;49.596;11.070;2024-03-08T03:03:36;1.60;60.70
15359;DHT22;7779;49.596;11.070;2024-03-08T03:06:02;1.60;60.80
15359;DHT22;7779;49.596;11.070;2024-03-08T03:08:28;1.60;60.90
15359;DHT22;7779;49.596;11.070;2024-03-08T03:10:54;1.60;60.90
15359;DHT22;7779;49.596;11.070;2024-03-08T03:13:22;1.60;60.90
15359;DHT22;7779;49.596;11.070;2024-03-08T03:15:48;1.50;60.80
15359;DHT22;7779;49.596;11.070;2024-03-08T03:18:14;1.50;60.80
15359;DHT22;7779;49.596;11.070;2024-03-08T03:20:41;2.20;61.40
15359;DHT22;7779;49.596;11.070;2024-03-08T03:23:08;1.50;60.70
15359;DHT22;7779;49.596;11.070;2024-03-08T03:25:35;1.50;60.70
15359;DHT22;7779;49.596;11.070;2024-03-08T03:28:01;1.50;60.70
15359;DHT22;7779;49.596;11.070;2024-03-08T03:30:27;1.40;60.70
15359;DHT22;7779;49.596;11.070;2024-03-08T03:32:59;1.40;60.60
15359;DHT22;7779;49.596;11.070;2024-03-08T03:35:32;1.40;60.70
15359;DHT22;7779;49.596;11.070;2024-03-08T03:37:58;1.60;60.90
15359;DHT22;7779;49.596;11.070;2024-03-08T03:40:32;1.30;60.70
15359;DHT22;7779;49.596;11.070;2024-03-08T03:42:58;1.20;60.70
15359;DHT22;7779;49.596;11.070;2024-03-08T03:45:24;1.20;60.70
15359;DHT22;7779;49.596;11.070;2024-03-08T03:47:50;1.20;60.90
15359;DHT22;7779;49.596;11.070;2024-03-08T03:50:18;1.20;61.00
15359;DHT22;7779;49.596;11.070;2024-03-08T03:52:46;1.10;60.90
15359;DHT22;7779;49.596;11.070;2024-03-08T03:55:13;1.10;61.00
15359;DHT22;7779;49.596;11.070;2024-03-08T03:57:39;1.10;61.00
15359;DHT22;7779;49.596;11.070;2024-03-08T04:00:06;1.10;61.10
15359;DHT22;7779;49.596;11.070;2024-03-08T04:02:40;1.00;61.00
15359;DHT22;7779;49.596;11.070;2024-03-08T04:05:10;1.00;61.00
15359;DHT22;7779;49.596;11.070;2024-03-08T04:07:37;1.00;61.10
15359;DHT22;7779;49.596;11.070;2024-03-08T04:10:04;1.00;60.90
15359;DHT22;7779;49.596;11.070;2024-03-08T04:12:35;1.00;61.30
15359;DHT22;7779;49.596;11.070;2024-03-08T04:15:01;0.90;61.20
15359;DHT22;7779;49.596;11.070;2024-03-08T04:17:27;0.90;61.30
15359;DHT22;7779;49.596;11.070;2024-03-08T04:19:53;0.90;61.40
15359;DHT22;7779;49.596;11.070;2024-03-08T04:22:19;0.90;61.40
15359;DHT22;7779;49.596;11.070;2024-03-08T04:24:45;0.90;61.50
15359;DHT22;7779;49.596;11.070;2024-03-08T04:27:11;0.90;61.50
15359;DHT22;7779;49.596;11.070;2024-03-08T04:29:37;0.90;61.50
15359;DHT22;7779;49.596;11.070;2024-03-08T04:32:04;0.90;61.60
15359;DHT22;7779;49.596;11.070;2024-03-08T04:34:32;0.80;61.50
15359;DHT22;7779;49.596;11.070;2024-03-08T04:37:00;0.80;61.50
15359;DHT22;7779;49.596;11.070;2024-03-08T04:39:27;0.80;61.40
15359;DHT22;7779;49.596;11.070;2024-03-08T04:42:03;0.80;61.40
15359;DHT22;7779;49.596;11.070;2024-03-08T04:44:32;0.70;61.60
15359;DHT22;7779;49.596;11.070;2024-03-08T04:46:59;0.70;61.40
15359;DHT22;7779;49.596;11.070;2024-03-08T04:49:25;0.70;62.30
15359;DHT22;7779;49.596;11.070;2024-03-08T04:51:51;0.70;61.60
15359;DHT22;7779;49.596;11.070;2024-03-08T04:54:17;0.70;61.60
15359;DHT22;7779;49.596;11.070;2024-03-08T04:56:42;0.70;61.70
15359;DHT22;7779;49.596;11.070;2024-03-08T04:59:08;0.60;61.70
15359;DHT22;7779;49.596;11.070;2024-03-08T05:01:34;0.60;62.00
15359;DHT22;7779;49.596;11.070;2024-03-08T05:04:03;0.60;62.20
15359;DHT22;7779;49.596;11.070;2024-03-08T05:06:29;0.60;62.30
15359;DHT22;7779;49.596;11.070;2024-03-08T05:08:56;0.70;62.50
15359;DHT22;7779;49.596;11.070;2024-03-08T05:11:21;0.70;62.50
15359;DHT22;7779;49.596;11.070;2024-03-08T05:13:47;0.70;62.50
15359;DHT22;7779;49.596;11.070;2024-03-08T05:16:13;0.70;62.50
15359;DHT22;7779;49.596;11.070;2024-03-08T05:18:41;0.70;62.40
15359;DHT22;7779;49.596;11.070;2024-03-08T05:21:07;0.70;62.30
15359;DHT22;7779;49.596;11.070;2024-03-08T05:23:34;0.70;62.40
15359;DHT22;7779;49.596;11.070;2024-03-08T05:26:00;0.70;62.60
15359;DHT22;7779;49.596;11.070;2024-03-08T05:28:26;0.70;64.10
15359;DHT22;7779;49.596;11.070;2024-03-08T05:30:52;0.80;62.90
15359;DHT22;7779;49.596;11.070;2024-03-08T05:33:17;0.80;63.00
15359;DHT22;7779;49.596;11.070;2024-03-08T05:35:44;0.80;63.10
15359;DHT22;7779;49.596;11.070;2024-03-08T05:38:10;0.90;63.30
15359;DHT22;7779;49.596;11.070;2024-03-08T05:40:38;0.90;63.40
15359;DHT22;7779;49.596;11.070;2024-03-08T05:43:04;1.00;63.40
15359;DHT22;7779;49.596;11.070;2024-03-08T05:45:30;1.00;63.40
15359;DHT22;7779;49.596;11.070;2024-03-08T05:47:56;1.10;63.60
15359;DHT22;7779;49.596;11.070;2024-03-08T05:50:22;1.10;63.60
15359;DHT22;7779;49.596;11.070;2024-03-08T05:52:48;1.20;63.60
15359;DHT22;7779;49.596;11.070;2024-03-08T05:55:13;1.20;63.50
15359;DHT22;7779;49.596;11.070;2024-03-08T05:57:42;1.20;63.40
15359;DHT22;7779;49.596;11.070;2024-03-08T06:00:09;1.30;62.90
15359;DHT22;7779;49.596;11.070;2024-03-08T06:02:41;1.30;63.20
15359;DHT22;7779;49.596;11.070;2024-03-08T06:05:09;1.40;63.20
15359;DHT22;7779;49.596;11.070;2024-03-08T06:07:38;1.40;63.10
15359;DHT22;7779;49.596;11.070;2024-03-08T06:10:10;1.40;63.10
15359;DHT22;7779;49.596;11.070;2024-03-08T06:12:39;1.40;62.90
15359;DHT22;7779;49.596;11.070;2024-03-08T06:15:07;1.40;62.90
15359;DHT22;7779;49.596;11.070;2024-03-08T06:17:38;1.40;63.00
15359;DHT22;7779;49.596;11.070;2024-03-08T06:20:04;1.40;63.00
15359;DHT22;7779;49.596;11.070;2024-03-08T06:22:37;1.40;63.20
15359;DHT22;7779;49.596;11.070;2024-03-08T06:25:06;1.40;63.20
15359;DHT22;7779;49.596;11.070;2024-03-08T06:27:40;1.50;63.40
15359;DHT22;7779;49.596;11.070;2024-03-08T06:30:08;1.50;63.60
15359;DHT22;7779;49.596;11.070;2024-03-08T06:32:38;1.50;63.60
15359;DHT22;7779;49.596;11.070;2024-03-08T06:35:06;1.60;63.80
15359;DHT22;7779;49.596;11.070;2024-03-08T06:37:33;1.60;63.90
15359;DHT22;7779;49.596;11.070;2024-03-08T06:40:00;1.70;64.00
15359;DHT22;7779;49.596;11.070;2024-03-08T06:42:27;1.80;65.00
15359;DHT22;7779;49.596;11.070;2024-03-08T06:44:53;1.80;64.40
15359;DHT22;7779;49.596;11.070;2024-03-08T06:47:21;1.90;64.70
15359;DHT22;7779;49.596;11.070;2024-03-08T06:49:51;2.00;64.80
15359;DHT22;7779;49.596;11.070;2024-03-08T06:52:17;2.10;65.00
15359;DHT22;7779;49.596;11.070;2024-03-08T06:54:43;2.20;64.80
15359;DHT22;7779;49.596;11.070;2024-03-08T06:57:09;2.30;64.80
15359;DHT22;7779;49.596;11.070;2024-03-08T06:59:36;2.40;65.40
15359;DHT22;7779;49.596;11.070;2024-03-08T07:02:04;2.50;64.80
15359;DHT22;7779;49.596;11.070;2024-03-08T07:04:30;2.70;65.00
15359;DHT22;7779;49.596;11.070;2024-03-08T07:06:56;2.70;64.80
15359;DHT22;7779;49.596;11.070;2024-03-08T07:09:26;2.90;64.80
15359;DHT22;7779;49.596;11.070;2024-03-08T07:11:52;2.90;64.60
15359;DHT22;7779;49.596;11.070;2024-03-08T07:14:23;3.10;64.80
15359;DHT22;7779;49.596;11.070;2024-03-08T07:16:50;3.20;64.70
15359;DHT22;7779;49.596;11.070;2024-03-08T07:19:17;3.30;64.60
15359;DHT22;7779;49.596;11.070;2024-03-08T07:21:43;3.40;64.70
15359;DHT22;7779;49.596;11.070;2024-03-08T07:24:10;3.50;64.70
15359;DHT22;7779;49.596;11.070;2024-03-08T07:26:45;3.60;64.50
15359;DHT22;7779;49.596;11.070;2024-03-08T07:29:16;3.70;64.80
15359;DHT22;7779;49.596;11.070;2024-03-08T07:31:41;3.70;64.50
15359;DHT22;7779;49.596;11.070;2024-03-08T07:34:07;3.80;64.30
15359;DHT22;7779;49.596;11.070;2024-03-08T07:36:35;3.90;64.40
15359;DHT22;7779;49.596;11.070;2024-03-08T07:39:01;4.00;64.40
15359;DHT22;7779;49.596;11.070;2024-03-08T07:41:27;4.10;64.40
15359;DHT22;7779;49.596;11.070;2024-03-08T07:43:58;4.20;64.20
15359;DHT22;7779;49.596;11.070;2024-03-08T07:46:24;4.30;64.20
15359;DHT22;7779;49.596;11.070;2024-03-08T07:48:49;4.40;64.10
15359;DHT22;7779;49.596;11.070;2024-03-08T07:51:18;4.50;64.10
15359;DHT22;7779;49.596;11.070;2024-03-08T07:53:43;4.50;64.00
15359;DHT22;7779;49.596;11.070;2024-03-08T07:56:10;4.60;64.00
15359;DHT22;7779;49.596;11.070;2024-03-08T07:58:38;4.70;63.90
15359;DHT22;7779;49.596;11.070;2024-03-08T08:01:06;4.80;63.90
15359;DHT22;7779;49.596;11.070;2024-03-08T08:03:32;4.90;63.80
15359;DHT22;7779;49.596;11.070;2024-03-08T08:05:58;5.00;63.70
15359;DHT22;7779;49.596;11.070;2024-03-08T08:08:23;5.00;63.50
15359;DHT22;7779;49.596;11.070;2024-03-08T08:10:51;5.10;63.50
15359;DHT22;7779;49.596;11.070;2024-03-08T08:13:17;5.20;63.40
15359;DHT22;7779;49.596;11.070;2024-03-08T08:15:43;5.20;63.20
15359;DHT22;7779;49.596;11.070;2024-03-08T08:18:09;5.40;62.90
15359;DHT22;7779;49.596;11.070;2024-03-08T08:20:35;5.40;63.30
15359;DHT22;7779;49.596;11.070;2024-03-08T08:23:01;5.50;63.00
15359;DHT22;7779;49.596;11.070;2024-03-08T08:25:27;5.60;63.00
15359;DHT22;7779;49.596;11.070;2024-03-08T08:27:52;5.60;62.90
15359;DHT22;7779;49.596;11.070;2024-03-08T08:30:19;5.70;62.80
15359;DHT22;7779;49.596;11.070;2024-03-08T08:32:46;5.70;62.70
15359;DHT22;7779;49.596;11.070;2024-03-08T08:35:12;5.80;62.80
15359;DHT22;7779;49.596;11.070;2024-03-08T08:37:41;5.90;62.80
15359;DHT22;7779;49.596;11.070;2024-03-08T08:40:07;6.00;62.80
15359;DHT22;7779;49.596;11.070;2024-03-08T08:42:40;6.10;62.80
15359;DHT22;7779;49.596;11.070;2024-03-08T08:45:07;6.10;62.60
15359;DHT22;7779;49.596;11.070;2024-03-08T08:47:37;6.20;62.50
15359;DHT22;7779;49.596;11.070;2024-03-08T08:50:03;6.30;62.30
15359;DHT22;7779;49.596;11.070;2024-03-08T08:52:33;6.30;62.30
15359;DHT22;7779;49.596;11.070;2024-03-08T08:55:00;6.40;62.40
15359;DHT22;7779;49.596;11.070;2024-03-08T08:57:25;6.50;62.50
15359;DHT22;7779;49.596;11.070;2024-03-08T08:59:53;6.60;62.30
15359;DHT22;7779;49.596;11.070;2024-03-08T09:02:19;6.60;62.30
15359;DHT22;7779;49.596;11.070;2024-03-08T09:04:46;6.70;63.00
15359;DHT22;7779;49.596;11.070;2024-03-08T09:07:13;6.80;62.20
15359;DHT22;7779;49.596;11.070;2024-03-08T09:09:39;6.90;62.20
15359;DHT22;7779;49.596;11.070;2024-03-08T09:12:07;7.00;62.20
15359;DHT22;7779;49.596;11.070;2024-03-08T09:14:33;7.10;62.20
15359;DHT22;7779;49.596;11.070;2024-03-08T09:16:58;7.20;62.20
15359;DHT22;7779;49.596;11.070;2024-03-08T09:19:24;7.30;61.90
15359;DHT22;7779;49.596;11.070;2024-03-08T09:21:51;7.40;61.80
15359;DHT22;7779;49.596;11.070;2024-03-08T09:24:17;7.40;61.30
15359;DHT22;7779;49.596;11.070;2024-03-08T09:26:43;7.50;61.10
15359;DHT22;7779;49.596;11.070;2024-03-08T09:29:09;7.60;61.10
15359;DHT22;7779;49.596;11.070;2024-03-08T09:31:36;7.60;61.00
15359;DHT22;7779;49.596;11.070;2024-03-08T09:34:03;7.70;61.00
15359;DHT22;7779;49.596;11.070;2024-03-08T09:36:29;7.80;60.90
15359;DHT22;7779;49.596;11.070;2024-03-08T09:38:55;7.80;60.80
15359;DHT22;7779;49.596;11.070;2024-03-08T09:41:21;7.90;60.80
15359;DHT22;7779;49.596;11.070;2024-03-08T09:43:46;7.90;60.50
15359;DHT22;7779;49.596;11.070;2024-03-08T09:46:12;8.00;60.70
15359;DHT22;7779;49.596;11.070;2024-03-08T09:48:40;8.10;60.70
15359;DHT22;7779;49.596;11.070;2024-03-08T09:51:07;8.20;60.70
15359;DHT22;7779;49.596;11.070;2024-03-08T09:53:35;8.20;60.40
15359;DHT22;7779;49.596;11.070;2024-03-08T09:56:00;8.30;60.30
15359;DHT22;7779;49.596;11.070;2024-03-08T09:58:29;8.40;60.30
15359;DHT22;7779;49.596;11.070;2024-03-08T10:01:00;8.50;60.20
15359;DHT22;7779;49.596;11.070;2024-03-08T10:03:29;8.50;60.10
15359;DHT22;7779;49.596;11.070;2024-03-08T10:05:56;8.60;60.20
15359;DHT22;7779;49.596;11.070;2024-03-08T10:08:29;8.70;58.20
15359;DHT22;7779;49.596;11.070;2024-03-08T10:10:56;8.70;59.60
15359;DHT22;7779;49.596;11.070;2024-03-08T10:13:26;8.80;59.50
15359;DHT22;7779;49.596;11.070;2024-03-08T10:15:55;8.80;59.60
15359;DHT22;7779;49.596;11.070;2024-03-08T10:18:21;8.90;59.60
15359;DHT22;7779;49.596;11.070;2024-03-08T10:21:04;9.00;59.30
15359;DHT22;7779;49.596;11.070;2024-03-08T10:23:33;9.00;58.80
15359;DHT22;7779;49.596;11.070;2024-03-08T10:26:16;9.00;59.50
15359;DHT22;7779;49.596;11.070;2024-03-08T10:28:48;9.10;58.20
15359;DHT22;7779;49.596;11.070;2024-03-08T10:31:15;9.10;58.80
15359;DHT22;7779;49.596;11.070;2024-03-08T10:33:42;9.20;59.00
15359;DHT22;7779;49.596;11.070;2024-03-08T10:36:08;9.20;58.80
15359;DHT22;7779;49.596;11.070;2024-03-08T10:38:39;9.30;58.90
15359;DHT22;7779;49.596;11.070;2024-03-08T10:41:07;9.30;58.80
15359;DHT22;7779;49.596;11.070;2024-03-08T10:44:02;9.40;58.80
15359;DHT22;7779;49.596;11.070;2024-03-08T10:47:00;9.40;58.30
15359;DHT22;7779;49.596;11.070;2024-03-08T10:49:38;9.50;58.30
15359;DHT22;7779;49.596;11.070;2024-03-08T10:52:09;9.50;58.10
15359;DHT22;7779;49.596;11.070;2024-03-08T10:54:38;9.60;58.20
15359;DHT22;7779;49.596;11.070;2024-03-08T10:57:05;9.60;58.70
15359;DHT22;7779;49.596;11.070;2024-03-08T10:59:34;9.70;58.20
15359;DHT22;7779;49.596;11.070;2024-03-08T11:02:01;9.80;58.20
15359;DHT22;7779;49.596;11.070;2024-03-08T11:04:27;9.80;58.00
15359;DHT22;7779;49.596;11.070;2024-03-08T11:07:03;9.90;58.20
15359;DHT22;7779;49.596;11.070;2024-03-08T11:09:37;10.00;56.90
15359;DHT22;7779;49.596;11.070;2024-03-08T11:12:23;10.00;56.50
15359;DHT22;7779;49.596;11.070;2024-03-08T11:14:57;10.00;55.60
15359;DHT22;7779;49.596;11.070;2024-03-08T11:19:59;10.20;56.20
15359;DHT22;7779;49.596;11.070;2024-03-08T11:22:32;10.20;56.70
15359;DHT22;7779;49.596;11.070;2024-03-08T11:25:03;10.30;56.20
15359;DHT22;7779;49.596;11.070;2024-03-08T11:27:35;10.30;55.80
15359;DHT22;7779;49.596;11.070;2024-03-08T11:30:04;10.40;56.10
15359;DHT22;7779;49.596;11.070;2024-03-08T11:32:38;10.40;56.10
15359;DHT22;7779;49.596;11.070;2024-03-08T11:35:30;10.50;56.10
15359;DHT22;7779;49.596;11.070;2024-03-08T11:37:58;10.50;54.20
15359;DHT22;7779;49.596;11.070;2024-03-08T11:40:26;10.60;55.90
15359;DHT22;7779;49.596;11.070;2024-03-08T11:42:52;10.70;56.10
15359;DHT22;7779;49.596;11.070;2024-03-08T11:45:18;10.70;55.80
15359;DHT22;7779;49.596;11.070;2024-03-08T11:47:46;10.80;55.50
15359;DHT22;7779;49.596;11.070;2024-03-08T11:50:16;10.80;55.70
15359;DHT22;7779;49.596;11.070;2024-03-08T11:52:43;10.90;55.40
15359;DHT22;7779;49.596;11.070;2024-03-08T11:55:09;10.90;56.10
15359;DHT22;7779;49.596;11.070;2024-03-08T11:57:38;11.00;55.40
15359;DHT22;7779;49.596;11.070;2024-03-08T12:00:04;11.10;55.40
15359;DHT22;7779;49.596;11.070;2024-03-08T12:02:36;11.10;55.30
15359;DHT22;7779;49.596;11.070;2024-03-08T12:05:03;11.20;54.90
15359;DHT22;7779;49.596;11.070;2024-03-08T12:07:31;11.20;54.70
15359;DHT22;7779;49.596;11.070;2024-03-08T12:10:17;11.30;54.70
15359;DHT22;7779;49.596;11.070;2024-03-08T12:12:52;11.30;53.20
15359;DHT22;7779;49.596;11.070;2024-03-08T12:15:20;11.40;54.00
15359;DHT22;7779;49.596;11.070;2024-03-08T12:17:50;11.40;54.50
15359;DHT22;7779;49.596;11.070;2024-03-08T12:20:23;11.40;53.90
15359;DHT22;7779;49.596;11.070;2024-03-08T12:22:55;11.50;54.30
15359;DHT22;7779;49.596;11.070;2024-03-08T12:25:30;11.50;54.40
15359;DHT22;7779;49.596;11.070;2024-03-08T12:28:06;11.50;54.10
15359;DHT22;7779;49.596;11.070;2024-03-08T12:30:44;11.60;54.20
15359;DHT22;7779;49.596;11.070;2024-03-08T12:33:12;11.60;54.10
15359;DHT22;7779;49.596;11.070;2024-03-08T12:35:38;11.60;54.10
15359;DHT22;7779;49.596;11.070;2024-03-08T12:38:04;11.70;53.90
15359;DHT22;7779;49.596;11.070;2024-03-08T12:40:32;11.70;53.80
15359;DHT22;7779;49.596;11.070;2024-03-08T12:43:01;11.70;53.20
15359;DHT22;7779;49.596;11.070;2024-03-08T12:45:28;11.80;53.50
15359;DHT22;7779;49.596;11.070;2024-03-08T12:47:54;11.80;53.10
15359;DHT22;7779;49.596;11.070;2024-03-08T12:50:22;11.80;53.60
15359;DHT22;7779;49.596;11.070;2024-03-08T12:52:48;11.80;53.00
15359;DHT22;7779;49.596;11.070;2024-03-08T12:55:15;11.80;53.10
15359;DHT22;7779;49.596;11.070;2024-03-08T12:57:43;11.90;53.20
15359;DHT22;7779;49.596;11.070;2024-03-08T13:00:11;11.90;52.80
15359;DHT22;7779;49.596;11.070;2024-03-08T13:02:47;11.90;53.00
15359;DHT22;7779;49.596;11.070;2024-03-08T13:05:13;12.00;52.60
15359;DHT22;7779;49.596;11.070;2024-03-08T13:07:41;12.00;52.90
15359;DHT22;7779;49.596;11.070;2024-03-08T13:10:12;12.00;52.70
15359;DHT22;7779;49.596;11.070;2024-03-08T13:12:44;12.00;52.40
15359;DHT22;7779;49.596;11.070;2024-03-08T13:15:10;12.10;52.10
15359;DHT22;7779;49.596;11.070;2024-03-08T13:17:40;12.10;51.90
15359;DHT22;7779;49.596;11.070;2024-03-08T13:20:08;12.10;52.20
15359;DHT22;7779;49.596;11.070;2024-03-08T13:22:35;12.10;52.40
15359;DHT22;7779;49.596;11.070;2024-03-08T13:25:01;12.20;52.30
15359;DHT22;7779;49.596;11.070;2024-03-08T13:27:28;12.20;52.50
15359;DHT22;7779;49.596;11.070;2024-03-08T13:29:54;12.20;52.20
15359;DHT22;7779;49.596;11.070;2024-03-08T13:32:20;12.30;52.30
15359;DHT22;7779;49.596;11.070;2024-03-08T13:34:46;12.30;51.80
15359;DHT22;7779;49.596;11.070;2024-03-08T13:37:16;12.30;52.50
15359;DHT22;7779;49.596;11.070;2024-03-08T13:39:43;12.40;51.80
15359;DHT22;7779;49.596;11.070;2024-03-08T13:42:15;12.40;51.80
15359;DHT22;7779;49.596;11.070;2024-03-08T13:44:48;12.40;50.90
15359;DHT22;7779;49.596;11.070;2024-03-08T13:47:18;12.40;51.00
15359;DHT22;7779;49.596;11.070;2024-03-08T13:49:44;12.40;51.20
15359;DHT22;7779;49.596;11.070;2024-03-08T13:52:10;12.40;51.20
15359;DHT22;7779;49.596;11.070;2024-03-08T13:54:38;12.50;51.60
15359;DHT22;7779;49.596;11.070;2024-03-08T13:57:04;12.50;51.60
15359;DHT22;7779;49.596;11.070;2024-03-08T13:59:31;12.50;51.70
15359;DHT22;7779;49.596;11.070;2024-03-08T14:01:59;12.50;51.60
15359;DHT22;7779;49.596;11.070;2024-03-08T14:04:30;12.50;51.50
15359;DHT22;7779;49.596;11.070;2024-03-08T14:06:56;12.60;51.20
15359;DHT22;7779;49.596;11.070;2024-03-08T14:09:25;12.60;51.20
15359;DHT22;7779;49.596;11.070;2024-03-08T14:11:57;12.60;51.50
15359;DHT22;7779;49.596;11.070;2024-03-08T14:14:24;12.60;51.30
15359;DHT22;7779;49.596;11.070;2024-03-08T14:16:50;12.60;51.30
15359;DHT22;7779;49.596;11.070;2024-03-08T14:19:20;12.60;49.50
15359;DHT22;7779;49.596;11.070;2024-03-08T14:21:46;12.60;51.40
15359;DHT22;7779;49.596;11.070;2024-03-08T14:24:17;12.70;51.30
15359;DHT22;7779;49.596;11.070;2024-03-08T14:26:44;12.60;51.10
15359;DHT22;7779;49.596;11.070;2024-03-08T14:29:10;12.60;51.20
15359;DHT22;7779;49.596;11.070;2024-03-08T14:31:37;12.70;51.10
15359;DHT22;7779;49.596;11.070;2024-03-08T14:34:02;12.70;51.10
15359;DHT22;7779;49.596;11.070;2024-03-08T14:36:29;12.70;50.80
15359;DHT22;7779;49.596;11.070;2024-03-08T14:38:55;12.70;49.00
15359;DHT22;7779;49.596;11.070;2024-03-08T14:41:21;12.70;51.00
15359;DHT22;7779;49.596;11.070;2024-03-08T14:43:50;12.70;50.90
15359;DHT22;7779;49.596;11.070;2024-03-08T14:46:18;12.70;50.80
15359;DHT22;7779;49.596;11.070;2024-03-08T14:48:55;12.70;50.80
15359;DHT22;7779;49.596;11.070;2024-03-08T14:51:22;12.70;50.00
15359;DHT22;7779;49.596;11.070;2024-03-08T14:53:52;12.70;50.10
15359;DHT22;7779;49.596;11.070;2024-03-08T14:56:20;12.70;50.50
15359;DHT22;7779;49.596;11.070;2024-03-08T14:58:46;12.70;50.40
15359;DHT22;7779;49.596;11.070;2024-03-08T15:01:15;12.60;50.90
15359;DHT22;7779;49.596;11.070;2024-03-08T15:03:44;12.60;50.40
15359;DHT22;7779;49.596;11.070;2024-03-08T15:06:10;12.60;50.30
15359;DHT22;7779;49.596;11.070;2024-03-08T15:08:36;12.60;50.40
15359;DHT22;7779;49.596;11.070;2024-03-08T15:11:04;12.60;50.30
15359;DHT22;7779;49.596;11.070;2024-03-08T15:13:31;12.60;50.10
15359;DHT22;7779;49.596;11.070;2024-03-08T15:16:11;12.60;50.00
15359;DHT22;7779;49.596;11.070;2024-03-08T15:18:42;12.50;49.90
15359;DHT22;7779;49.596;11.070;2024-03-08T15:21:13;12.50;50.00
15359;DHT22;7779;49.596;11.070;2024-03-08T15:23:45;12.50;50.00
15359;DHT22;7779;49.596;11.070;2024-03-08T15:26:20;12.50;50.20
15359;DHT22;7779;49.596;11.070;2024-03-08T15:28:46;12.40;49.80
15359;DHT22;7779;49.596;11.070;2024-03-08T15:31:14;12.40;49.90
15359;DHT22;7779;49.596;11.070;2024-03-08T15:33:41;12.40;50.00
15359;DHT22;7779;49.596;11.070;2024-03-08T15:36:16;12.30;50.20
15359;DHT22;7779;49.596;11.070;2024-03-08T15:38:46;12.30;50.00
15359;DHT22;7779;49.596;11.070;2024-03-08T15:41:13;12.20;50.60
15359;DHT22;7779;49.596;11.070;2024-03-08T15:43:40;12.30;50.20
15359;DHT22;7779;49.596;11.070;2024-03-08T15:46:07;12.10;49.90
15359;DHT22;7779;49.596;11.070;2024-03-08T15:48:33;12.10;50.10